Time;durP1;ratioP1;P1;durP2;ratioP2;P2;SDS_P1;SDS_P2;PMS_P1;PMS_P2;Temp;Humidity;BMP_temperature;BMP_pressure;BME280_temperature;BME280_humidity;BME280_pressure;Samples;Min_cycle;Max_cycle;Signal;HPM_P1;HPM_P2
2022/07/17 00:01:13;;;;;;;2.47;0.52;;;;;;;10.55;50.39;102657.59;4978231;28;20041;-78
2022/07/17 00:03:39;;;;;;;1.92;0.30;;;;;;;10.60;49.93;102663.63;4975321;28;20046;-77
2022/07/17 00:06:05;;;;;;;2.15;0.40;;;;;;;10.55;50.13;102662.81;4958769;28;20089;-77
2022/07/17 00:08:31;;;;;;;5.80;0.65;;;;;;;10.49;50.17;102662.88;4973292;28;20039;-77
2022/07/17 00:10:57;;;;;;;5.25;0.28;;;;;;;10.58;50.14;102664.53;4960447;28;22111;-77
2022/07/17 00:13:23;;;;;;;5.03;0.47;;;;;;;10.42;49.80;102659.47;4963073;28;20038;-77
2022/07/17 00:15:49;;;;;;;2.53;0.32;;;;;;;10.35;49.95;102647.34;4972929;28;20433;-77
2022/07/17 00:18:15;;;;;;;4.78;0.40;;;;;;;10.35;50.17;102651.72;4976570;28;20636;-76
2022/07/17 00:20:40;;;;;;;6.45;0.43;;;;;;;10.31;50.62;102653.50;4957711;28;20042;-77
2022/07/17 00:23:06;;;;;;;1.42;0.30;;;;;;;10.30;50.51;102653.50;4961454;28;20137;-76
2022/07/17 00:25:34;;;;;;;3.45;0.30;;;;;;;10.31;50.48;102657.84;4962109;28;20062;-79
2022/07/17 00:28:01;;;;;;;2.25;0.40;;;;;;;10.28;50.66;102650.03;4978739;28;20052;-77
2022/07/17 00:30:26;;;;;;;3.28;0.68;;;;;;;10.29;50.90;102654.41;4972339;28;20045;-76
2022/07/17 00:32:52;;;;;;;1.75;0.40;;;;;;;10.37;50.51;102657.78;4956345;28;20047;-76
2022/07/17 00:35:18;;;;;;;1.75;0.30;;;;;;;10.39;50.88;102658.63;4975220;28;20691;-77
2022/07/17 00:37:45;;;;;;;3.85;1.17;;;;;;;10.55;50.20;102662.81;4976204;28;20050;-77
2022/07/17 00:40:14;;;;;;;3.10;0.50;;;;;;;10.57;50.34;102661.06;4974080;28;20034;-77
2022/07/17 00:42:40;;;;;;;2.88;0.45;;;;;;;10.67;50.33;102656.56;4972165;28;20053;-77
2022/07/17 00:45:07;;;;;;;2.30;0.47;;;;;;;10.76;49.46;102653.84;4967431;28;20030;-77
2022/07/17 00:47:33;;;;;;;2.95;0.43;;;;;;;10.91;50.02;102658.06;4971383;28;20113;-77
2022/07/17 00:49:58;;;;;;;2.97;0.85;;;;;;;10.91;49.19;102658.06;4971510;28;20038;-76
2022/07/17 00:52:24;;;;;;;3.80;0.40;;;;;;;10.90;49.55;102653.69;4973143;28;20043;-77
2022/07/17 00:54:51;;;;;;;4.05;0.57;;;;;;;11.02;49.60;102656.16;4976201;28;20035;-77
2022/07/17 00:57:18;;;;;;;3.42;0.77;;;;;;;11.02;48.96;102647.44;4972068;28;20046;-76
2022/07/17 00:59:44;;;;;;;2.50;0.50;;;;;;;11.09;48.94;102653.47;4974885;28;20069;-78
2022/07/17 01:02:12;;;;;;;9.52;0.60;;;;;;;11.19;48.65;102647.19;4978110;28;20074;-76
2022/07/17 01:04:38;;;;;;;5.25;0.50;;;;;;;11.16;47.93;102649.88;4986715;28;20121;-78
2022/07/17 01:07:06;;;;;;;5.70;0.57;;;;;;;11.20;48.11;102651.56;4940047;28;20144;-77
2022/07/17 01:09:32;;;;;;;3.40;0.80;;;;;;;11.12;48.81;102658.66;4965116;28;20077;-79
2022/07/17 01:11:58;;;;;;;4.63;0.40;;;;;;;11.17;48.78;102656.81;4973721;28;20053;-78
2022/07/17 01:14:25;;;;;;;6.28;0.50;;;;;;;11.25;48.77;102657.59;4961152;28;20027;-77
2022/07/17 01:16:52;;;;;;;3.42;0.50;;;;;;;11.22;48.27;102649.78;4973106;28;20046;-78
2022/07/17 01:19:18;;;;;;;2.85;0.70;;;;;;;11.23;48.53;102651.50;4979550;28;20035;-77
2022/07/17 01:21:45;;;;;;;3.78;0.50;;;;;;;10.98;48.56;102653.59;4962491;28;20038;-76
2022/07/17 01:24:12;;;;;;;3.72;0.40;;;;;;;11.10;48.46;102649.94;4965045;28;20045;-77
2022/07/17 01:26:41;;;;;;;3.20;0.82;;;;;;;10.91;49.21;102644.13;4971579;28;20041;-77
2022/07/17 01:29:08;;;;;;;2.85;0.50;;;;;;;10.93;49.21;102653.66;4979615;28;20034;-78
2022/07/17 01:31:33;;;;;;;2.50;0.50;;;;;;;10.98;49.15;102651.00;4981251;28;20033;-79
2022/07/17 01:34:01;;;;;;;2.95;1.15;;;;;;;10.95;49.21;102651.91;4978781;28;20728;-77
2022/07/17 01:36:26;;;;;;;4.38;0.65;;;;;;;10.81;49.32;102653.78;4975638;28;20425;-77
2022/07/17 01:38:52;;;;;;;2.67;0.60;;;;;;;10.86;48.92;102657.25;4976872;28;20093;-77
2022/07/17 01:41:17;;;;;;;4.00;0.38;;;;;;;10.82;49.33;102655.56;4974091;28;20034;-78
2022/07/17 01:43:43;;;;;;;6.53;0.40;;;;;;;10.74;49.47;102658.22;4974381;28;20042;-79
2022/07/17 01:46:08;;;;;;;3.30;0.82;;;;;;;10.92;49.37;102662.38;4978695;28;20066;-77
2022/07/17 01:48:34;;;;;;;3.70;0.50;;;;;;;11.00;48.91;102672.78;4974474;28;20045;-78
2022/07/17 01:50:59;;;;;;;1.48;0.45;;;;;;;10.94;48.86;102671.09;4978118;28;20033;-77
2022/07/17 01:53:25;;;;;;;3.90;0.43;;;;;;;10.85;48.71;102671.19;4971166;28;20707;-78
2022/07/17 01:55:51;;;;;;;4.18;0.40;;;;;;;10.62;49.52;102672.31;4969231;28;20985;-78
2022/07/17 01:58:17;;;;;;;4.75;0.50;;;;;;;10.59;49.43;102669.75;4974790;28;20039;-76
2022/07/17 02:00:43;;;;;;;2.40;0.50;;;;;;;10.51;49.66;102668.09;4972139;28;20379;-78
2022/07/17 02:03:08;;;;;;;4.13;0.80;;;;;;;10.41;49.86;102670.81;4962073;28;20041;-76
2022/07/17 02:05:34;;;;;;;8.65;0.57;;;;;;;10.22;50.18;102670.13;4972347;28;20137;-76
2022/07/17 02:07:59;;;;;;;6.38;1.00;;;;;;;10.07;50.42;102672.88;4970010;28;20038;-77
2022/07/17 02:10:26;;;;;;;5.30;0.43;;;;;;;10.04;50.48;102670.31;4977514;28;20805;-77
2022/07/17 02:12:52;;;;;;;1.35;0.95;;;;;;;10.08;50.67;102676.34;4969917;28;20054;-77
2022/07/17 02:15:17;;;;;;;7.43;0.57;;;;;;;10.00;50.51;102679.06;4978253;28;20034;-77
2022/07/17 02:17:43;;;;;;;3.42;0.38;;;;;;;9.94;50.81;102681.72;4960189;28;20588;-78
2022/07/17 02:20:11;;;;;;;3.35;0.65;;;;;;;9.94;50.68;102687.78;4973306;28;20062;-77
2022/07/17 02:22:38;;;;;;;2.10;0.50;;;;;;;9.94;50.89;102690.41;4969946;28;20092;-76
2022/07/17 02:25:04;;;;;;;1.35;0.30;;;;;;;9.83;51.01;102688.75;4972750;28;20030;-76
2022/07/17 02:27:33;;;;;;;2.10;0.75;;;;;;;9.72;51.38;102694.91;4972007;28;20071;-77
2022/07/17 02:30:02;;;;;;;5.43;0.93;;;;;;;9.80;51.18;102693.13;4976160;28;20096;-78
2022/07/17 02:32:27;;;;;;;2.72;0.40;;;;;;;9.77;51.00;102698.34;4975065;28;20054;-77
2022/07/17 02:34:53;;;;;;;3.42;0.40;;;;;;;9.73;51.12;102701.88;4975889;28;20049;-77
2022/07/17 02:37:18;;;;;;;3.80;0.50;;;;;;;9.70;51.19;102690.56;4986291;28;20046;-75
2022/07/17 02:39:53;;;;;;;1.38;0.60;;;;;;;9.63;51.25;102692.34;4973573;28;20069;-76
2022/07/17 02:42:26;;;;;;;1.63;0.40;;;;;;;9.47;51.85;102677.69;4972635;28;20109;-77
2022/07/17 02:44:52;;;;;;;3.13;0.60;;;;;;;9.27;52.18;102676.06;4969960;28;20122;-77
2022/07/17 02:47:32;;;;;;;4.70;0.73;;;;;;;9.22;52.60;102670.00;4969581;28;20576;-78
2022/07/17 02:50:01;;;;;;;3.78;0.50;;;;;;;9.26;52.69;102656.06;4961168;28;20041;-78
2022/07/17 02:52:27;;;;;;;4.45;0.50;;;;;;;9.25;52.94;102651.72;4971015;28;20875;-77
2022/07/17 02:54:52;;;;;;;1.38;0.50;;;;;;;9.31;52.75;102645.59;4968345;28;20110;-76
2022/07/17 02:57:18;;;;;;;3.85;0.43;;;;;;;9.34;52.84;102646.47;4955554;28;20130;-78
2022/07/17 02:59:45;;;;;;;2.25;0.80;;;;;;;9.42;53.01;102663.81;4972979;28;20054;-77
2022/07/17 03:02:10;;;;;;;2.78;0.40;;;;;;;9.65;52.56;102677.53;4977338;28;20121;-77
2022/07/17 03:04:36;;;;;;;1.77;0.65;;;;;;;9.65;52.16;102698.44;4976483;28;20454;-78
2022/07/17 03:07:01;;;;;;;4.32;0.45;;;;;;;9.79;52.05;102712.31;4982311;28;20034;-78
2022/07/17 03:09:27;;;;;;;7.47;1.15;;;;;;;9.80;51.76;102700.09;4967776;28;20041;-76
2022/07/17 03:11:54;;;;;;;6.68;0.40;;;;;;;9.71;51.58;102693.16;4943051;28;20585;-77
2022/07/17 03:14:20;;;;;;;5.55;0.95;;;;;;;9.66;51.62;102705.41;4980244;28;20054;-77
2022/07/17 03:16:45;;;;;;;6.07;0.70;;;;;;;9.54;51.15;102695.03;4984319;28;20145;-79
2022/07/17 03:19:11;;;;;;;1.40;0.47;;;;;;;9.28;51.77;102687.38;4979020;28;20046;-77
2022/07/17 03:21:37;;;;;;;4.78;0.77;;;;;;;9.17;52.18;102695.25;4980431;28;20034;-77
2022/07/17 03:24:02;;;;;;;4.22;0.60;;;;;;;9.13;52.15;102685.72;4997864;28;20037;-76
2022/07/17 03:26:28;;;;;;;2.10;0.30;;;;;;;9.22;52.15;102690.88;5000691;28;20054;-77
2022/07/17 03:28:53;;;;;;;2.58;1.25;;;;;;;9.18;52.44;102689.16;4984775;28;20034;-79
2022/07/17 03:31:19;;;;;;;2.58;0.50;;;;;;;9.26;52.07;102692.59;4986101;28;20026;-77
2022/07/17 03:33:44;;;;;;;5.22;0.50;;;;;;;9.17;52.67;102687.44;4995028;28;20046;-78
2022/07/17 03:36:09;;;;;;;1.33;0.60;;;;;;;9.11;52.42;102679.63;4987291;28;20049;-77
2022/07/17 03:38:35;;;;;;;5.20;0.47;;;;;;;9.17;52.58;102684.81;4985247;28;20045;-77
2022/07/17 03:41:01;;;;;;;3.42;1.10;;;;;;;9.34;52.57;102688.22;4999974;28;20137;-77
2022/07/17 03:43:26;;;;;;;6.28;1.10;;;;;;;9.37;52.35;102688.19;4999371;28;20259;-77
2022/07/17 03:45:52;;;;;;;11.45;1.30;;;;;;;9.41;52.39;102683.81;4999007;28;20317;-76
2022/07/17 03:48:17;;;;;;;6.82;1.35;;;;;;;9.30;52.56;102686.50;4944006;28;20061;-77
2022/07/17 03:50:43;;;;;;;7.55;0.93;;;;;;;9.38;52.66;102695.13;4995335;28;20135;-79
2022/07/17 03:53:08;;;;;;;5.53;1.25;;;;;;;9.61;52.17;102681.09;4999765;28;20066;-77
2022/07/17 03:55:34;;;;;;;3.58;0.70;;;;;;;9.74;51.92;102684.44;4998501;28;20425;-75
2022/07/17 03:57:59;;;;;;;3.90;0.90;;;;;;;9.78;51.88;102684.41;4997129;28;20046;-75
2022/07/17 04:00:25;;;;;;;7.22;1.20;;;;;;;9.94;51.72;102679.09;4996023;28;20630;-78
2022/07/17 04:02:51;;;;;;;6.57;0.52;;;;;;;10.02;51.93;102683.38;4993897;28;20104;-77
2022/07/17 04:05:17;;;;;;;1.35;0.55;;;;;;;10.07;51.50;102678.09;4985592;28;20022;-77
2022/07/17 04:07:43;;;;;;;2.72;0.77;;;;;;;10.14;51.29;102682.38;4984027;28;20046;-77
2022/07/17 04:10:11;;;;;;;5.20;0.82;;;;;;;10.13;51.15;102690.25;4986067;28;20030;-77
2022/07/17 04:12:37;;;;;;;3.78;0.93;;;;;;;10.09;50.84;102689.41;4991823;28;20104;-77
2022/07/17 04:15:04;;;;;;;4.85;0.88;;;;;;;9.70;52.04;102681.00;5001691;28;20029;-76
2022/07/17 04:17:30;;;;;;;1.45;0.47;;;;;;;9.63;51.88;102684.53;4998308;28;20089;-78
2022/07/17 04:19:55;;;;;;;4.25;0.73;;;;;;;9.71;51.67;102693.16;4995445;28;20213;-77
2022/07/17 04:22:21;;;;;;;2.15;0.75;;;;;;;9.82;51.95;102684.44;4980242;28;20030;-77
2022/07/17 04:24:47;;;;;;;6.00;0.80;;;;;;;9.85;51.66;102689.63;4991594;28;20492;-78
2022/07/17 04:27:13;;;;;;;2.97;0.63;;;;;;;10.02;51.86;102695.56;5000361;28;20096;-77
2022/07/17 04:29:39;;;;;;;5.53;0.95;;;;;;;10.04;51.65;102693.81;4996777;28;20272;-77
2022/07/17 04:32:05;;;;;;;3.13;0.70;;;;;;;10.21;51.17;102693.66;4995788;28;20081;-77
2022/07/17 04:34:32;;;;;;;4.70;0.80;;;;;;;10.35;51.07;102690.94;4995332;28;20058;-78
2022/07/17 04:36:57;;;;;;;3.63;0.80;;;;;;;10.33;50.26;102687.47;4990178;28;20565;-77
2022/07/17 04:39:23;;;;;;;3.28;0.75;;;;;;;10.36;50.63;102688.28;4995651;28;20030;-79
2022/07/17 04:41:50;;;;;;;4.22;0.80;;;;;;;10.44;50.48;102688.22;4993263;28;20100;-77
2022/07/17 04:44:15;;;;;;;4.60;1.25;;;;;;;10.57;50.40;102689.81;5006440;28;20699;-77
2022/07/17 04:46:41;;;;;;;1.80;0.50;;;;;;;10.54;50.63;102681.97;4993456;28;20026;-78
2022/07/17 04:49:07;;;;;;;5.60;0.60;;;;;;;10.64;50.84;102683.63;4981442;28;20022;-76
2022/07/17 04:51:33;;;;;;;0.95;0.60;;;;;;;10.69;50.39;102690.56;4995596;28;20061;-76
2022/07/17 04:53:58;;;;;;;6.03;0.85;;;;;;;10.78;50.17;102686.06;4982968;28;20567;-77
2022/07/17 04:56:24;;;;;;;0.75;0.30;;;;;;;10.84;50.18;102690.41;4999428;28;20034;-78
2022/07/17 04:58:49;;;;;;;2.00;0.77;;;;;;;10.99;49.82;102684.09;4991597;28;20088;-77
2022/07/17 05:01:15;;;;;;;3.42;1.02;;;;;;;11.11;49.73;102688.34;4982276;28;20141;-77
2022/07/17 05:03:40;;;;;;;2.22;0.80;;;;;;;11.11;48.75;102690.94;4998464;28;20045;-78
2022/07/17 05:06:06;;;;;;;5.20;0.80;;;;;;;11.20;49.56;102689.06;4996463;28;20128;-77
2022/07/17 05:08:33;;;;;;;4.93;0.63;;;;;;;11.37;49.38;102688.81;4996184;28;20061;-77
2022/07/17 05:10:59;;;;;;;7.35;0.60;;;;;;;11.54;48.77;102692.94;4994775;28;20510;-78
2022/07/17 05:13:25;;;;;;;9.75;0.88;;;;;;;11.71;48.74;102696.19;4998361;28;20038;-77
2022/07/17 05:15:50;;;;;;;6.22;0.68;;;;;;;11.87;48.30;102702.91;4993269;28;20636;-76
2022/07/17 05:18:16;;;;;;;5.65;1.13;;;;;;;12.00;47.79;102695.72;4982462;28;20074;-78
2022/07/17 05:20:42;;;;;;;5.53;0.70;;;;;;;12.01;47.84;102691.34;4997406;28;20415;-77
2022/07/17 05:23:07;;;;;;;3.33;0.50;;;;;;;11.93;48.53;102685.34;4994997;28;20049;-76
2022/07/17 05:25:33;;;;;;;2.38;0.50;;;;;;;12.23;47.51;102697.06;4994545;28;20062;-77
2022/07/17 05:27:59;;;;;;;3.33;0.73;;;;;;;13.17;46.30;102692.63;4989693;28;20046;-78
2022/07/17 05:30:25;;;;;;;4.00;0.47;;;;;;;13.13;46.15;102680.44;4992305;28;20076;-78
2022/07/17 05:32:50;;;;;;;2.92;0.57;;;;;;;13.05;45.33;102681.47;4997854;28;20129;-78
2022/07/17 05:35:16;;;;;;;6.13;0.60;;;;;;;13.75;43.82;102688.66;4992444;28;20038;-77
2022/07/17 05:37:41;;;;;;;6.32;0.60;;;;;;;15.91;39.72;102686.78;4998336;28;20038;-78
2022/07/17 05:40:08;;;;;;;2.08;0.50;;;;;;;16.64;38.26;102679.81;5006231;28;20072;-78
2022/07/17 05:42:33;;;;;;;1.60;0.22;;;;;;;17.34;37.94;102680.72;4987879;28;20125;-76
2022/07/17 05:44:59;;;;;;;3.50;0.47;;;;;;;19.36;34.67;102691.25;4980177;28;20534;-78
2022/07/17 05:47:25;;;;;;;5.25;0.63;;;;;;;19.49;32.69;102697.66;4991410;28;20602;-79
2022/07/17 05:49:50;;;;;;;10.23;0.70;;;;;;;18.33;34.07;102686.25;4989832;28;20037;-77
2022/07/17 05:52:16;;;;;;;1.77;0.43;;;;;;;16.69;37.70;102706.94;4977396;28;20743;-78
2022/07/17 05:54:42;;;;;;;4.45;0.50;;;;;;;16.31;40.28;102708.31;4983762;28;20828;-78
2022/07/17 05:57:08;;;;;;;3.13;0.85;;;;;;;16.47;40.14;102717.41;4998844;28;20112;-77
2022/07/17 05:59:34;;;;;;;4.95;0.40;;;;;;;17.09;38.78;102712.50;5006952;28;20030;-79
2022/07/17 06:02:00;;;;;;;3.95;0.30;;;;;;;18.01;38.33;102709.69;4993471;28;20046;-76
2022/07/17 06:04:26;;;;;;;3.28;0.38;;;;;;;21.27;32.85;102722.00;4984189;28;20040;-78
2022/07/17 06:06:51;;;;;;;2.03;0.20;;;;;;;22.08;29.17;102709.31;4990601;28;21088;-78
2022/07/17 06:09:17;;;;;;;5.13;0.63;;;;;;;20.68;31.48;102719.00;4980569;28;20468;-77
2022/07/17 06:11:42;;;;;;;5.22;0.70;;;;;;;19.25;32.74;102718.28;4999036;28;20821;-78
2022/07/17 06:14:08;;;;;;;3.80;0.20;;;;;;;20.48;33.23;102726.25;4999250;28;20690;-78
2022/07/17 06:16:34;;;;;;;1.75;0.15;;;;;;;23.41;28.28;102718.75;4978828;28;20404;-77
2022/07/17 06:18:59;;;;;;;6.88;0.20;;;;;;;24.97;26.05;102719.59;4991556;28;20033;-77
2022/07/17 06:21:25;;;;;;;3.17;0.30;;;;;;;25.59;24.17;102720.41;4999651;28;20068;-78
2022/07/17 06:23:50;;;;;;;3.95;0.63;;;;;;;26.42;23.33;102719.34;4981869;28;20046;-77
2022/07/17 06:26:16;;;;;;;1.25;0.45;;;;;;;25.46;24.95;102723.97;4982612;28;20037;-78
2022/07/17 06:28:42;;;;;;;2.30;0.28;;;;;;;26.96;23.02;102720.41;4976937;28;20133;-76
2022/07/17 06:31:08;;;;;;;1.00;0.10;;;;;;;28.71;21.75;102724.34;4998240;28;20042;-77
2022/07/17 06:33:34;;;;;;;3.10;0.45;;;;;;;29.64;19.39;102725.75;4995290;28;20117;-78
2022/07/17 06:36:00;;;;;;;2.13;0.10;;;;;;;29.55;19.52;102732.81;4995725;28;20069;-78
2022/07/17 06:38:25;;;;;;;3.53;0.57;;;;;;;28.82;21.08;102731.47;4998137;28;20806;-77
2022/07/17 06:40:51;;;;;;;2.47;0.45;;;;;;;29.41;20.10;102722.47;5000218;28;20049;-77
2022/07/17 06:43:16;;;;;;;4.60;0.30;;;;;;;29.46;19.84;102731.00;4987530;28;20069;-77
2022/07/17 06:45:42;;;;;;;2.47;0.10;;;;;;;28.61;21.07;102723.44;4983366;28;20618;-77
2022/07/17 06:48:08;;;;;;;1.52;0.10;;;;;;;28.28;20.75;102723.59;4997769;28;20091;-80
2022/07/17 06:50:34;;;;;;;4.65;0.10;;;;;;;28.67;19.74;102717.53;4989727;28;20113;-78
2022/07/17 06:53:00;;;;;;;1.52;0.10;;;;;;;29.32;19.51;102726.00;5013295;28;20785;-78
2022/07/17 06:55:25;;;;;;;1.55;0.10;;;;;;;29.43;19.19;102730.41;5011616;28;20105;-79
2022/07/17 06:57:51;;;;;;;3.53;0.50;;;;;;;28.45;20.24;102740.09;4998831;28;20038;-78
2022/07/17 07:00:18;;;;;;;1.98;0.10;;;;;;;28.07;21.03;102730.81;5005471;28;20038;-77
2022/07/17 07:02:44;;;;;;;3.13;0.52;;;;;;;27.39;20.99;102736.53;4984651;28;20061;-78
2022/07/17 07:05:09;;;;;;;1.92;0.28;;;;;;;26.69;22.09;102744.00;4976952;28;20030;-78
2022/07/17 07:07:35;;;;;;;3.88;0.20;;;;;;;26.96;21.34;102734.69;5001751;28;20038;-78
2022/07/17 07:10:00;;;;;;;0.30;0.03;;;;;;;27.32;21.85;102738.03;5008087;28;20038;-78
2022/07/17 07:12:26;;;;;;;2.33;0.20;;;;;;;26.21;22.79;102743.34;4999696;28;20941;-77
2022/07/17 07:14:51;;;;;;;0.70;0.10;;;;;;;24.58;24.09;102740.16;4998862;28;20108;-77
2022/07/17 07:17:17;;;;;;;2.03;0.20;;;;;;;25.11;24.29;102749.78;5000057;28;20618;-77
2022/07/17 07:19:43;;;;;;;2.92;0.20;;;;;;;25.88;23.40;102742.28;4994914;28;20034;-78
2022/07/17 07:22:09;;;;;;;3.20;0.30;;;;;;;26.10;23.97;102751.38;4987212;28;20069;-79
2022/07/17 07:24:35;;;;;;;2.13;0.25;;;;;;;24.50;24.68;102757.72;5001865;28;20184;-78
2022/07/17 07:27:00;;;;;;;1.10;0.10;;;;;;;23.97;25.68;102765.78;4994631;28;20147;-77
2022/07/17 07:29:25;;;;;;;2.92;0.20;;;;;;;23.14;26.73;102756.03;4999683;28;20036;-78
2022/07/17 07:31:51;;;;;;;5.97;0.30;;;;;;;22.81;26.92;102775.03;4996995;28;20113;-78
2022/07/17 07:34:16;;;;;;;1.10;0.10;;;;;;;21.17;29.99;102771.31;4980930;28;20045;-77
2022/07/17 07:36:42;;;;;;;2.42;0.10;;;;;;;21.38;30.10;102769.25;4991335;28;20034;-78
2022/07/17 07:39:08;;;;;;;2.70;0.15;;;;;;;22.95;27.25;102771.50;5000745;28;20676;-77
2022/07/17 07:41:33;;;;;;;4.50;0.20;;;;;;;23.27;27.15;102768.56;5000202;28;20044;-78
2022/07/17 07:43:59;;;;;;;2.50;0.35;;;;;;;22.86;27.00;102767.59;4997241;28;20535;-79
2022/07/17 07:46:25;;;;;;;2.03;0.10;;;;;;;24.38;25.79;102775.44;4985439;28;20109;-80
2022/07/17 07:48:51;;;;;;;1.85;0.20;;;;;;;26.76;22.81;102770.31;4994716;28;20046;-78
2022/07/17 07:51:17;;;;;;;2.10;0.10;;;;;;;28.29;20.49;102772.84;4983160;28;20037;-77
2022/07/17 07:53:43;;;;;;;2.38;0.20;;;;;;;25.55;23.37;102783.16;4981632;28;20049;-79
2022/07/17 07:56:09;;;;;;;9.95;0.35;;;;;;;24.48;24.91;102787.25;4983465;28;20034;-77
2022/07/17 07:58:35;;;;;;;1.10;0.20;;;;;;;23.42;26.12;102771.13;4995370;28;20038;-81
2022/07/17 08:01:00;;;;;;;0.57;0.20;;;;;;;23.30;27.14;102766.59;4997917;28;20048;-78
2022/07/17 08:03:26;;;;;;;4.72;0.10;;;;;;;22.31;28.10;102782.47;4996599;28;20034;-79
2022/07/17 08:05:51;;;;;;;2.33;0.47;;;;;;;23.70;26.06;102777.34;4995761;28;20038;-79
2022/07/17 08:08:17;;;;;;;0.68;0.13;;;;;;;25.72;24.61;102787.25;4998426;28;20042;-81
2022/07/17 08:10:42;;;;;;;3.33;0.20;;;;;;;23.78;25.94;102783.00;4982525;28;20088;-79
2022/07/17 08:13:08;;;;;;;6.68;0.47;;;;;;;23.17;25.91;102771.00;4984353;28;20737;-80
2022/07/17 08:15:33;;;;;;;0.85;0.20;;;;;;;22.47;26.89;102785.09;4999928;28;20312;-80
2022/07/17 08:17:59;;;;;;;2.08;0.20;;;;;;;22.38;27.92;102781.19;4991074;28;20086;-77
2022/07/17 08:20:25;;;;;;;2.53;0.20;;;;;;;24.57;25.31;102778.56;4984050;28;20037;-77
2022/07/17 08:22:51;;;;;;;2.45;0.25;;;;;;;25.79;23.95;102781.31;4993323;28;20061;-77
2022/07/17 08:25:17;;;;;;;2.63;0.17;;;;;;;24.09;26.17;102786.31;4992773;28;20032;-77
2022/07/17 08:27:43;;;;;;;1.63;0.15;;;;;;;21.79;28.87;102785.53;4993691;28;20042;-77
2022/07/17 08:30:12;;;;;;;3.90;0.20;;;;;;;21.10;30.04;102787.59;4978633;28;20076;-77
2022/07/17 08:32:39;;;;;;;1.52;0.30;;;;;;;20.25;31.02;102782.38;4990103;28;20061;-77
2022/07/17 08:35:05;;;;;;;0.90;0.15;;;;;;;19.79;32.03;102779.34;4990908;28;20038;-77
2022/07/17 08:37:30;;;;;;;5.30;0.20;;;;;;;19.23;33.31;102786.41;4980997;28;20042;-76
2022/07/17 08:39:56;;;;;;;3.22;0.20;;;;;;;19.47;32.94;102779.09;4980466;28;20040;-78
2022/07/17 08:42:22;;;;;;;2.65;0.15;;;;;;;21.86;29.44;102783.38;4993922;28;20482;-78
2022/07/17 08:44:48;;;;;;;1.88;0.35;;;;;;;25.59;24.01;102779.28;4997834;28;20453;-77
2022/07/17 08:47:15;;;;;;;0.77;0.30;;;;;;;27.42;21.50;102779.22;4992456;28;20052;-79
2022/07/17 08:49:46;;;;;;;1.20;0.10;;;;;;;27.72;20.73;102785.75;4982476;28;20046;-79
2022/07/17 08:52:13;;;;;;;2.50;0.32;;;;;;;28.37;20.49;102788.28;5005220;28;20057;-78
2022/07/17 08:54:39;;;;;;;0.75;0.45;;;;;;;28.57;19.51;102786.56;4993290;28;20560;-78
2022/07/17 08:57:04;;;;;;;0.52;0.15;;;;;;;27.88;20.70;102786.16;4991300;28;20050;-80
2022/07/17 08:59:31;;;;;;;2.22;0.15;;;;;;;25.30;23.47;102790.31;4992690;28;20647;-78
2022/07/17 09:01:58;;;;;;;5.32;0.20;;;;;;;23.85;25.19;102791.47;5004680;28;20045;-78
2022/07/17 09:04:24;;;;;;;3.00;0.43;;;;;;;22.08;28.24;102793.63;4992424;28;20169;-78
2022/07/17 09:07:01;;;;;;;1.42;0.38;;;;;;;21.21;29.34;102788.81;4996831;28;20041;-77
2022/07/17 09:09:28;;;;;;;3.67;0.57;;;;;;;22.45;28.05;102791.44;4993858;28;20551;-77
2022/07/17 09:11:55;;;;;;;1.95;0.43;;;;;;;23.08;27.08;102788.44;4990175;28;20042;-77
2022/07/17 09:14:22;;;;;;;1.27;0.10;;;;;;;25.07;24.08;102797.34;4980901;28;20173;-78
2022/07/17 09:16:50;;;;;;;2.10;0.22;;;;;;;27.03;21.98;102788.72;4991414;28;20042;-78
2022/07/17 09:19:41;;;;;;;2.67;0.17;;;;;;;28.26;20.28;102790.09;4999840;28;20117;-78
2022/07/17 09:22:11;;;;;;;0.90;0.10;;;;;;;28.36;20.32;102792.81;4975621;28;20124;-76
2022/07/17 09:24:49;;;;;;;3.25;0.30;;;;;;;27.53;20.89;102792.63;4991846;28;20049;-77
2022/07/17 09:27:29;;;;;;;1.17;0.10;;;;;;;25.76;22.07;102789.59;4975915;28;20026;-78
2022/07/17 09:30:00;;;;;;;2.03;0.30;;;;;;;24.80;23.48;102792.13;5003246;28;20043;-77
2022/07/17 09:32:29;;;;;;;4.05;0.20;;;;;;;24.00;24.41;102786.94;4983176;28;20040;-77
2022/07/17 09:34:56;;;;;;;2.28;0.30;;;;;;;23.44;24.97;102778.19;4974067;28;20042;-78
2022/07/17 09:37:23;;;;;;;1.23;0.35;;;;;;;22.87;26.17;102779.13;4974729;28;20057;-78
2022/07/17 09:39:51;;;;;;;3.25;0.17;;;;;;;22.13;27.95;102784.44;4993767;28;20129;-77
2022/07/17 09:42:29;;;;;;;1.63;0.40;;;;;;;21.94;29.05;102787.31;4979118;28;20661;-78
2022/07/17 09:45:04;;;;;;;8.38;0.52;;;;;;;21.41;29.55;102796.53;4988101;28;20068;-78
2022/07/17 09:47:31;;;;;;;1.88;0.20;;;;;;;21.06;30.75;102794.03;5003812;28;20050;-77
2022/07/17 09:49:58;;;;;;;3.88;0.25;;;;;;;20.99;30.25;102789.13;4990097;28;20057;-76
2022/07/17 09:52:27;;;;;;;2.72;0.30;;;;;;;21.22;30.15;102785.22;4989558;28;20054;-79
2022/07/17 09:54:54;;;;;;;1.92;0.50;;;;;;;22.07;28.89;102787.47;5003368;28;20835;-78
2022/07/17 09:57:29;;;;;;;3.05;0.30;;;;;;;22.33;28.87;102790.38;4993414;28;20036;-77
2022/07/17 09:59:59;;;;;;;1.95;0.20;;;;;;;23.15;26.87;102778.22;4987879;28;20496;-76
2022/07/17 10:02:25;;;;;;;2.35;0.22;;;;;;;22.87;27.31;102787.97;4988533;28;20041;-77
2022/07/17 10:04:52;;;;;;;3.47;0.30;;;;;;;22.76;28.22;102787.78;4979127;28;20022;-77
2022/07/17 10:07:18;;;;;;;2.85;0.30;;;;;;;24.03;25.51;102773.38;4975903;28;20095;-77
2022/07/17 10:09:47;;;;;;;0.73;0.17;;;;;;;24.63;24.70;102769.25;5006011;28;20084;-78
2022/07/17 10:12:16;;;;;;;2.22;0.32;;;;;;;25.01;25.00;102773.69;4982081;28;20042;-79
2022/07/17 10:14:46;;;;;;;1.95;0.22;;;;;;;25.05;25.74;102784.06;4994858;28;20034;-79
2022/07/17 10:17:13;;;;;;;3.28;0.20;;;;;;;25.50;23.58;102770.09;4987177;28;20046;-79
2022/07/17 10:19:56;;;;;;;2.05;0.20;;;;;;;25.09;24.41;102778.50;4989529;28;20033;-77
2022/07/17 10:22:23;;;;;;;1.17;0.20;;;;;;;24.99;23.04;102776.47;4990774;28;20092;-77
2022/07/17 10:25:03;;;;;;;4.15;0.40;;;;;;;25.59;24.11;102769.44;4989176;28;20044;-77
2022/07/17 10:27:30;;;;;;;4.68;0.30;;;;;;;24.72;25.27;102770.41;4996453;28;20064;-76
2022/07/17 10:30:09;;;;;;;1.35;0.10;;;;;;;24.55;25.91;102772.47;4989287;28;20042;-78
2022/07/17 10:32:35;;;;;;;1.65;0.20;;;;;;;25.26;24.38;102780.78;4993310;28;20045;-78
2022/07/17 10:35:05;;;;;;;1.80;0.20;;;;;;;24.48;26.03;102765.84;4990413;28;20450;-77
2022/07/17 10:37:36;;;;;;;1.40;0.30;;;;;;;25.08;24.52;102774.09;4993990;28;20050;-78
2022/07/17 10:40:14;;;;;;;1.48;0.30;;;;;;;25.19;24.27;102771.50;4987317;28;20195;-77
2022/07/17 10:42:49;;;;;;;1.10;0.20;;;;;;;25.27;23.59;102769.13;4977755;28;20543;-75
2022/07/17 10:45:23;;;;;;;3.55;0.30;;;;;;;24.24;25.39;102771.91;4979777;28;20045;-76
2022/07/17 10:47:52;;;;;;;1.88;0.15;;;;;;;24.27;24.73;102767.31;5003283;28;20050;-76
2022/07/17 10:50:22;;;;;;;1.25;0.45;;;;;;;25.46;24.95;102764.13;4990202;28;20309;-77
2022/07/17 10:53:07;;;;;;;1.70;0.20;;;;;;;26.06;23.86;102769.50;4977819;28;20034;-77
2022/07/17 10:55:34;;;;;;;1.05;0.10;;;;;;;24.92;25.24;102769.84;5006748;28;20034;-77
2022/07/17 10:58:00;;;;;;;2.45;0.63;;;;;;;24.65;25.03;102761.97;4981134;28;20060;-77
2022/07/17 11:00:26;;;;;;;1.17;0.20;;;;;;;23.38;26.97;102758.09;4975631;28;20893;-77
2022/07/17 11:02:52;;;;;;;1.38;0.20;;;;;;;23.39;27.49;102766.00;4971327;28;20077;-79
2022/07/17 11:05:18;;;;;;;3.38;0.38;;;;;;;23.62;26.46;102760.97;4959352;28;20543;-76
2022/07/17 11:07:59;;;;;;;1.88;0.40;;;;;;;24.64;25.89;102753.09;4972231;28;20050;-78
2022/07/17 11:10:27;;;;;;;0.65;0.20;;;;;;;24.73;25.41;102756.09;4976786;28;20095;-78
2022/07/17 11:13:08;;;;;;;3.05;0.52;;;;;;;24.79;25.45;102752.97;4975668;28;20112;-78
2022/07/17 11:15:47;;;;;;;3.65;0.20;;;;;;;24.96;25.37;102763.31;4974960;28;20045;-78
2022/07/17 11:18:14;;;;;;;1.63;0.20;;;;;;;24.32;25.97;102759.81;4973471;28;20726;-77
2022/07/17 11:20:52;;;;;;;4.55;0.30;;;;;;;24.08;25.17;102768.59;4959429;28;20915;-77
2022/07/17 11:23:20;;;;;;;0.85;0.20;;;;;;;23.89;26.14;102762.78;4954780;28;20105;-78
2022/07/17 11:25:57;;;;;;;2.67;0.40;;;;;;;24.39;25.98;102761.09;4967877;28;20516;-74